sensor_id;sensor_type;location;lat;lon;timestamp;noise_LAeq;noise_LA_min;noise_LA_max;noise_LA01;noise_LA95
66589;Laerm;53447;49.272;11.070;2023-11-21T00:01:55;39.11;34.44;46.70;;
66589;Laerm;53447;49.272;11.070;2023-11-21T00:04:21;39.30;35.41;44.65;;
66589;Laerm;53447;49.272;11.070;2023-11-21T00:06:46;41.96;35.82;48.86;;
66589;Laerm;53447;49.272;11.070;2023-11-21T00:09:12;39.97;36.38;46.05;;
66589;Laerm;53447;49.272;11.070;2023-11-21T00:11:38;39.60;36.38;43.86;;
66589;Laerm;53447;49.272;11.070;2023-11-21T00:14:03;40.05;37.02;43.77;;
66589;Laerm;53447;49.272;11.070;2023-11-21T00:16:28;40.48;37.17;45.43;;
66589;Laerm;53447;49.272;11.070;2023-11-21T00:18:53;41.99;38.42;55.46;;
66589;Laerm;53447;49.272;11.070;2023-11-21T00:21:19;40.56;37.45;47.64;;
66589;Laerm;53447;49.272;11.070;2023-11-21T00:23:44;39.90;36.71;45.76;;
66589;Laerm;53447;49.272;11.070;2023-11-21T00:26:09;39.49;35.82;46.02;;
66589;Laerm;53447;49.272;11.070;2023-11-21T00:28:35;39.35;35.41;43.08;;
66589;Laerm;53447;49.272;11.070;2023-11-21T00:31:00;40.09;35.19;47.16;;
66589;Laerm;53447;49.272;11.070;2023-11-21T00:33:25;40.05;35.41;43.95;;
66589;Laerm;53447;49.272;11.070;2023-11-21T00:35:50;38.96;34.70;47.79;;
66589;Laerm;53447;49.272;11.070;2023-11-21T00:38:16;39.36;33.86;43.01;;
66589;Laerm;53447;49.272;11.070;2023-11-21T00:40:44;40.08;35.19;46.34;;
66589;Laerm;53447;49.272;11.070;2023-11-21T00:43:09;38.83;33.54;44.07;;
66589;Laerm;53447;49.272;11.070;2023-11-21T00:45:35;38.73;34.44;42.36;;
66589;Laerm;53447;49.272;11.070;2023-11-21T00:48:01;38.93;34.16;43.80;;
66589;Laerm;53447;49.272;11.070;2023-11-21T00:50:27;39.00;34.95;42.89;;
66589;Laerm;53447;49.272;11.070;2023-11-21T00:52:52;40.33;35.82;43.54;;
66589;Laerm;53447;49.272;11.070;2023-11-21T00:55:17;39.34;34.70;43.08;;
66589;Laerm;53447;49.272;11.070;2023-11-21T00:57:43;39.22;34.70;51.87;;
66589;Laerm;53447;49.272;11.070;2023-11-21T01:00:08;48.95;34.44;67.19;;
66589;Laerm;53447;49.272;11.070;2023-11-21T01:02:38;41.15;35.82;51.96;;
66589;Laerm;53447;49.272;11.070;2023-11-21T01:05:04;41.18;36.20;51.84;;
66589;Laerm;53447;49.272;11.070;2023-11-21T01:07:29;40.74;34.09;53.35;;
66589;Laerm;53447;49.272;11.070;2023-11-21T01:09:54;39.36;35.19;45.39;;
66589;Laerm;53447;49.272;11.070;2023-11-21T01:12:21;39.38;35.19;42.93;;
66589;Laerm;53447;49.272;11.070;2023-11-21T01:14:46;39.34;34.95;43.98;;
66589;Laerm;53447;49.272;11.070;2023-11-21T01:17:12;40.43;35.27;49.89;;
66589;Laerm;53447;49.272;11.070;2023-11-21T01:19:37;39.60;34.95;45.82;;
66589;Laerm;53447;49.272;11.070;2023-11-21T01:22:02;40.63;35.82;49.57;;
66589;Laerm;53447;49.272;11.070;2023-11-21T01:24:28;39.49;34.95;45.86;;
66589;Laerm;53447;49.272;11.070;2023-11-21T01:26:54;39.22;34.70;46.22;;
66589;Laerm;53447;49.272;11.070;2023-11-21T01:29:19;40.24;34.44;43.61;;
66589;Laerm;53447;49.272;11.070;2023-11-21T01:31:45;39.36;33.54;44.41;;
66589;Laerm;53447;49.272;11.070;2023-11-21T01:34:10;41.24;36.02;44.90;;
66589;Laerm;53447;49.272;11.070;2023-11-21T01:36:35;39.43;34.44;43.08;;
66589;Laerm;53447;49.272;11.070;2023-11-21T01:39:00;39.64;33.54;44.07;;
66589;Laerm;53447;49.272;11.070;2023-11-21T01:41:26;40.42;34.16;45.96;;
66589;Laerm;53447;49.272;11.070;2023-11-21T01:43:52;43.53;40.39;46.38;;
66589;Laerm;53447;49.272;11.070;2023-11-21T01:46:18;42.25;40.18;44.80;;
66589;Laerm;53447;49.272;11.070;2023-11-21T01:48:44;41.82;38.83;46.07;;
66589;Laerm;53447;49.272;11.070;2023-11-21T01:51:10;41.73;39.03;44.10;;
66589;Laerm;53447;49.272;11.070;2023-11-21T01:53:35;41.57;39.21;43.89;;
66589;Laerm;53447;49.272;11.070;2023-11-21T01:56:01;41.45;38.68;43.73;;
66589;Laerm;53447;49.272;11.070;2023-11-21T01:58:26;41.39;38.20;54.60;;
66589;Laerm;53447;49.272;11.070;2023-11-21T02:00:52;42.01;39.12;43.96;;
66589;Laerm;53447;49.272;11.070;2023-11-21T02:03:19;41.62;38.42;43.54;;
66589;Laerm;53447;49.272;11.070;2023-11-21T02:05:45;42.91;38.63;52.20;;
66589;Laerm;53447;49.272;11.070;2023-11-21T02:08:11;41.51;38.53;44.20;;
66589;Laerm;53447;49.272;11.070;2023-11-21T02:10:36;40.60;33.86;42.65;;
66589;Laerm;53447;49.272;11.070;2023-11-21T02:13:02;39.16;33.19;43.67;;
66589;Laerm;53447;49.272;11.070;2023-11-21T02:15:28;39.91;34.44;43.57;;
66589;Laerm;53447;49.272;11.070;2023-11-21T02:17:54;39.99;34.95;43.12;;
66589;Laerm;53447;49.272;11.070;2023-11-21T02:20:20;38.84;33.86;42.40;;
66589;Laerm;53447;49.272;11.070;2023-11-21T02:22:50;43.29;34.16;56.53;;
66589;Laerm;53447;49.272;11.070;2023-11-21T02:25:18;40.55;34.70;44.13;;
66589;Laerm;53447;49.272;11.070;2023-11-21T02:27:43;41.73;37.96;50.00;;
66589;Laerm;53447;49.272;11.070;2023-11-21T02:30:08;43.97;34.95;58.63;;
66589;Laerm;53447;49.272;11.070;2023-11-21T02:32:37;39.02;34.16;41.94;;
66589;Laerm;53447;49.272;11.070;2023-11-21T02:35:05;39.46;34.44;42.93;;
66589;Laerm;53447;49.272;11.070;2023-11-21T02:37:32;38.69;33.54;42.08;;
66589;Laerm;53447;49.272;11.070;2023-11-21T02:39:58;38.80;34.16;42.18;;
66589;Laerm;53447;49.272;11.070;2023-11-21T02:42:24;38.65;32.40;41.69;;
66589;Laerm;53447;49.272;11.070;2023-11-21T02:44:49;38.75;32.40;41.92;;
66589;Laerm;53447;49.272;11.070;2023-11-21T02:47:15;38.65;33.86;41.69;;
66589;Laerm;53447;49.272;11.070;2023-11-21T02:49:40;38.82;33.86;41.84;;
66589;Laerm;53447;49.272;11.070;2023-11-21T02:52:05;38.93;33.86;41.89;;
66589;Laerm;53447;49.272;11.070;2023-11-21T02:54:31;40.35;34.95;43.92;;
66589;Laerm;53447;49.272;11.070;2023-11-21T02:56:58;39.13;34.44;41.89;;
66589;Laerm;53447;49.272;11.070;2023-11-21T02:59:24;39.28;33.86;42.31;;
66589;Laerm;53447;49.272;11.070;2023-11-21T03:01:49;39.28;34.16;42.57;;
66589;Laerm;53447;49.272;11.070;2023-11-21T03:04:14;38.73;33.86;41.59;;
66589;Laerm;53447;49.272;11.070;2023-11-21T03:06:42;39.76;34.44;42.73;;
66589;Laerm;53447;49.272;11.070;2023-11-21T03:09:08;38.76;33.19;42.93;;
66589;Laerm;53447;49.272;11.070;2023-11-21T03:11:33;38.50;33.54;41.94;;
66589;Laerm;53447;49.272;11.070;2023-11-21T03:13:58;38.88;33.86;42.22;;
66589;Laerm;53447;49.272;11.070;2023-11-21T03:16:23;40.10;33.54;43.51;;
66589;Laerm;53447;49.272;11.070;2023-11-21T03:18:48;39.58;34.16;43.12;;
66589;Laerm;53447;49.272;11.070;2023-11-21T03:21:14;41.16;37.31;43.23;;
66589;Laerm;53447;49.272;11.070;2023-11-21T03:23:39;40.41;34.16;43.83;;
66589;Laerm;53447;49.272;11.070;2023-11-21T03:26:04;40.35;34.16;44.07;;
66589;Laerm;53447;49.272;11.070;2023-11-21T03:28:33;39.03;34.16;41.84;;
66589;Laerm;53447;49.272;11.070;2023-11-21T03:30:58;38.82;33.54;41.79;;
66589;Laerm;53447;49.272;11.070;2023-11-21T03:33:24;38.96;33.54;41.79;;
66589;Laerm;53447;49.272;11.070;2023-11-21T03:35:49;39.22;34.16;43.47;;
66589;Laerm;53447;49.272;11.070;2023-11-21T03:38:14;39.87;34.16;43.30;;
66589;Laerm;53447;49.272;11.070;2023-11-21T03:40:40;39.03;33.54;52.49;;
66589;Laerm;53447;49.272;11.070;2023-11-21T03:43:06;39.17;34.70;42.08;;
66589;Laerm;53447;49.272;11.070;2023-11-21T03:45:31;41.04;35.48;43.47;;
66589;Laerm;53447;49.272;11.070;2023-11-21T03:47:56;41.36;37.71;43.44;;
66589;Laerm;53447;49.272;11.070;2023-11-21T03:50:21;41.41;37.84;43.37;;
66589;Laerm;53447;49.272;11.070;2023-11-21T03:52:47;41.22;34.95;43.37;;
66589;Laerm;53447;49.272;11.070;2023-11-21T03:55:12;39.80;35.19;43.80;;
66589;Laerm;53447;49.272;11.070;2023-11-21T03:57:37;39.57;33.54;43.01;;
66589;Laerm;53447;49.272;11.070;2023-11-21T04:00:03;39.75;34.16;44.39;;
66589;Laerm;53447;49.272;11.070;2023-11-21T04:02:33;39.28;34.16;42.40;;
66589;Laerm;53447;49.272;11.070;2023-11-21T04:04:58;42.28;37.31;50.12;;
66589;Laerm;53447;49.272;11.070;2023-11-21T04:07:24;42.01;39.56;45.37;;
66589;Laerm;53447;49.272;11.070;2023-11-21T04:09:49;42.22;40.46;43.92;;
66589;Laerm;53447;49.272;11.070;2023-11-21T04:12:14;42.22;40.18;43.44;;
66589;Laerm;53447;49.272;11.070;2023-11-21T04:14:40;41.68;39.12;43.44;;
66589;Laerm;53447;49.272;11.070;2023-11-21T04:17:05;41.85;38.73;47.77;;
66589;Laerm;53447;49.272;11.070;2023-11-21T04:19:30;41.59;38.63;43.23;;
66589;Laerm;53447;49.272;11.070;2023-11-21T04:21:55;41.49;38.93;43.54;;
66589;Laerm;53447;49.272;11.070;2023-11-21T04:24:21;42.84;39.30;50.91;;
66589;Laerm;53447;49.272;11.070;2023-11-21T04:26:46;43.08;39.72;53.69;;
66589;Laerm;53447;49.272;11.070;2023-11-21T04:29:11;42.15;39.88;43.54;;
66589;Laerm;53447;49.272;11.070;2023-11-21T04:31:36;41.93;38.42;46.54;;
66589;Laerm;53447;49.272;11.070;2023-11-21T04:34:02;40.81;36.02;45.23;;
66589;Laerm;53447;49.272;11.070;2023-11-21T04:36:29;39.78;36.02;44.04;;
66589;Laerm;53447;49.272;11.070;2023-11-21T04:38:55;39.88;36.02;42.57;;
66589;Laerm;53447;49.272;11.070;2023-11-21T04:41:20;40.18;36.71;43.08;;
66589;Laerm;53447;49.272;11.070;2023-11-21T04:43:46;40.12;36.71;42.93;;
66589;Laerm;53447;49.272;11.070;2023-11-21T04:46:11;40.05;35.41;43.51;;
66589;Laerm;53447;49.272;11.070;2023-11-21T04:48:36;40.83;36.55;45.19;;
66589;Laerm;53447;49.272;11.070;2023-11-21T04:51:01;42.33;39.03;46.05;;
66589;Laerm;53447;49.272;11.070;2023-11-21T04:53:26;41.86;38.83;43.67;;
66589;Laerm;53447;49.272;11.070;2023-11-21T04:55:52;40.54;36.38;49.25;;
66589;Laerm;53447;49.272;11.070;2023-11-21T04:58:17;53.37;36.55;71.23;;
66589;Laerm;53447;49.272;11.070;2023-11-21T05:00:44;53.45;36.87;69.99;;
66589;Laerm;53447;49.272;11.070;2023-11-21T05:03:09;46.61;39.56;59.46;;
66589;Laerm;53447;49.272;11.070;2023-11-21T05:05:34;42.57;37.58;46.63;;
66589;Laerm;53447;49.272;11.070;2023-11-21T05:08:00;44.27;42.40;51.00;;
66589;Laerm;53447;49.272;11.070;2023-11-21T05:10:26;44.16;42.65;49.25;;
66589;Laerm;53447;49.272;11.070;2023-11-21T05:12:51;43.80;42.13;45.50;;
66589;Laerm;53447;49.272;11.070;2023-11-21T05:15:16;44.40;42.36;54.07;;
66589;Laerm;53447;49.272;11.070;2023-11-21T05:17:44;49.70;43.04;70.83;;
66589;Laerm;53447;49.272;11.070;2023-11-21T05:20:10;49.51;43.19;66.21;;
66589;Laerm;53447;49.272;11.070;2023-11-21T05:22:37;53.22;41.79;72.14;;
66589;Laerm;53447;49.272;11.070;2023-11-21T05:25:03;44.28;37.17;60.22;;
66589;Laerm;53447;49.272;11.070;2023-11-21T05:27:29;49.35;37.31;66.22;;
66589;Laerm;53447;49.272;11.070;2023-11-21T05:29:54;43.90;39.56;53.11;;
66589;Laerm;53447;49.272;11.070;2023-11-21T05:32:20;43.63;41.03;52.49;;
66589;Laerm;53447;49.272;11.070;2023-11-21T05:34:45;41.57;36.55;44.10;;
66589;Laerm;53447;49.272;11.070;2023-11-21T05:37:10;41.58;36.87;50.11;;
66589;Laerm;53447;49.272;11.070;2023-11-21T05:39:35;41.52;37.02;43.95;;
66589;Laerm;53447;49.272;11.070;2023-11-21T05:42:01;42.24;37.45;49.80;;
66589;Laerm;53447;49.272;11.070;2023-11-21T05:44:26;43.51;37.45;51.86;;
66589;Laerm;53447;49.272;11.070;2023-11-21T05:46:51;43.28;37.84;61.91;;
66589;Laerm;53447;49.272;11.070;2023-11-21T05:49:16;42.28;37.58;55.52;;
66589;Laerm;53447;49.272;11.070;2023-11-21T05:51:41;48.54;39.39;65.88;;
66589;Laerm;53447;49.272;11.070;2023-11-21T05:54:07;54.61;38.63;73.72;;
66589;Laerm;53447;49.272;11.070;2023-11-21T05:56:33;42.28;38.20;49.59;;
66589;Laerm;53447;49.272;11.070;2023-11-21T05:58:58;44.95;37.58;69.76;;
66589;Laerm;53447;49.272;11.070;2023-11-21T06:01:23;43.41;37.02;55.82;;
66589;Laerm;53447;49.272;11.070;2023-11-21T06:03:48;49.65;37.96;67.72;;
66589;Laerm;53447;49.272;11.070;2023-11-21T06:06:13;43.42;38.93;58.24;;
66589;Laerm;53447;49.272;11.070;2023-11-21T06:08:39;48.84;38.83;72.03;;
66589;Laerm;53447;49.272;11.070;2023-11-21T06:11:04;41.90;38.20;48.86;;
66589;Laerm;53447;49.272;11.070;2023-11-21T06:13:29;53.44;39.48;72.69;;
66589;Laerm;53447;49.272;11.070;2023-11-21T06:15:55;48.12;38.20;64.35;;
66589;Laerm;53447;49.272;11.070;2023-11-21T06:18:20;53.66;39.13;71.84;;
66589;Laerm;53447;49.272;11.070;2023-11-21T06:20:46;48.68;36.87;66.41;;
66589;Laerm;53447;49.272;11.070;2023-11-21T06:23:11;43.10;38.08;59.46;;
66589;Laerm;53447;49.272;11.070;2023-11-21T06:25:36;53.82;37.37;70.19;;
66589;Laerm;53447;49.272;11.070;2023-11-21T06:28:02;51.72;37.96;64.11;;
66589;Laerm;53447;49.272;11.070;2023-11-21T06:30:27;43.70;37.24;56.39;;
66589;Laerm;53447;49.272;11.070;2023-11-21T06:32:54;51.23;40.25;64.69;;
66589;Laerm;53447;49.272;11.070;2023-11-21T06:35:20;53.51;39.56;70.11;;
66589;Laerm;53447;49.272;11.070;2023-11-21T06:37:45;58.53;40.91;76.70;;
66589;Laerm;53447;49.272;11.070;2023-11-21T06:40:12;45.69;38.53;59.96;;
66589;Laerm;53447;49.272;11.070;2023-11-21T06:42:40;55.76;38.08;71.01;;
66589;Laerm;53447;49.272;11.070;2023-11-21T06:45:06;48.58;40.39;64.48;;
66589;Laerm;53447;49.272;11.070;2023-11-21T06:47:31;55.13;40.72;72.67;;
66589;Laerm;53447;49.272;11.070;2023-11-21T06:49:56;54.89;40.46;70.26;;
66589;Laerm;53447;49.272;11.070;2023-11-21T06:52:22;47.65;40.05;61.22;;
66589;Laerm;53447;49.272;11.070;2023-11-21T06:54:48;51.51;40.18;66.72;;
66589;Laerm;53447;49.272;11.070;2023-11-21T06:57:16;49.23;40.32;63.17;;
66589;Laerm;53447;49.272;11.070;2023-11-21T06:59:42;47.74;39.88;62.63;;
66589;Laerm;53447;49.272;11.070;2023-11-21T07:02:07;52.06;39.21;68.36;;
66589;Laerm;53447;49.272;11.070;2023-11-21T07:04:32;46.38;40.03;63.44;;
66589;Laerm;53447;49.272;11.070;2023-11-21T07:06:58;42.64;39.96;55.51;;
66589;Laerm;53447;49.272;11.070;2023-11-21T07:09:23;42.20;39.48;54.86;;
66589;Laerm;53447;49.272;11.070;2023-11-21T07:11:48;41.95;39.21;48.05;;
66589;Laerm;53447;49.272;11.070;2023-11-21T07:14:14;41.58;38.73;53.16;;
66589;Laerm;53447;49.272;11.070;2023-11-21T07:16:39;54.10;37.02;71.23;;
66589;Laerm;53447;49.272;11.070;2023-11-21T07:19:05;51.13;37.71;69.52;;
66589;Laerm;53447;49.272;11.070;2023-11-21T07:21:34;43.00;37.61;53.62;;
66589;Laerm;53447;49.272;11.070;2023-11-21T07:24:00;40.50;37.31;44.98;;
66589;Laerm;53447;49.272;11.070;2023-11-21T07:26:26;41.50;36.87;62.96;;
66589;Laerm;53447;49.272;11.070;2023-11-21T07:28:51;45.93;36.71;62.44;;
66589;Laerm;53447;49.272;11.070;2023-11-21T07:31:16;49.70;37.31;68.24;;
66589;Laerm;53447;49.272;11.070;2023-11-21T07:33:41;40.11;36.87;47.85;;
66589;Laerm;53447;49.272;11.070;2023-11-21T07:36:07;52.09;37.02;70.35;;
66589;Laerm;53447;49.272;11.070;2023-11-21T07:38:32;42.46;37.73;52.36;;
66589;Laerm;53447;49.272;11.070;2023-11-21T07:40:58;56.33;38.31;75.72;;
66589;Laerm;53447;49.272;11.070;2023-11-21T07:43:26;43.10;37.71;60.44;;
66589;Laerm;53447;49.272;11.070;2023-11-21T07:45:51;51.98;38.63;70.72;;
66589;Laerm;53447;49.272;11.070;2023-11-21T07:48:17;41.55;37.17;54.03;;
66589;Laerm;53447;49.272;11.070;2023-11-21T07:50:42;48.03;37.02;65.50;;
66589;Laerm;53447;49.272;11.070;2023-11-21T07:53:07;54.38;36.38;71.93;;
66589;Laerm;53447;49.272;11.070;2023-11-21T07:55:32;53.21;37.96;68.95;;
66589;Laerm;53447;49.272;11.070;2023-11-21T07:57:58;51.76;39.96;69.81;;
66589;Laerm;53447;49.272;11.070;2023-11-21T08:00:24;56.04;40.18;72.00;;
66589;Laerm;53447;49.272;11.070;2023-11-21T08:02:49;52.79;41.03;72.21;;
66589;Laerm;53447;49.272;11.070;2023-11-21T08:05:14;55.13;38.53;69.88;;
66589;Laerm;53447;49.272;11.070;2023-11-21T08:07:40;44.72;37.71;65.01;;
66589;Laerm;53447;49.272;11.070;2023-11-21T08:10:05;52.78;37.84;73.29;;
66589;Laerm;53447;49.272;11.070;2023-11-21T08:12:31;52.11;37.45;78.64;;
66589;Laerm;53447;49.272;11.070;2023-11-21T08:14:57;50.64;37.02;76.48;;
66589;Laerm;53447;49.272;11.070;2023-11-21T08:17:22;50.16;37.96;69.71;;
66589;Laerm;53447;49.272;11.070;2023-11-21T08:19:48;46.03;36.87;67.55;;
66589;Laerm;53447;49.272;11.070;2023-11-21T08:22:17;51.33;39.64;71.06;;
66589;Laerm;53447;49.272;11.070;2023-11-21T08:24:45;53.65;38.42;76.50;;
66589;Laerm;53447;49.272;11.070;2023-11-21T08:27:11;48.85;37.31;64.96;;
66589;Laerm;53447;49.272;11.070;2023-11-21T08:29:36;48.65;39.03;65.71;;
66589;Laerm;53447;49.272;11.070;2023-11-21T08:32:02;53.95;38.42;70.52;;
66589;Laerm;53447;49.272;11.070;2023-11-21T08:34:27;44.87;37.02;64.65;;
66589;Laerm;53447;49.272;11.070;2023-11-21T08:36:53;41.77;37.31;49.90;;
66589;Laerm;53447;49.272;11.070;2023-11-21T08:39:18;42.10;37.31;52.84;;
66589;Laerm;53447;49.272;11.070;2023-11-21T08:41:44;41.95;37.17;53.92;;
66589;Laerm;53447;49.272;11.070;2023-11-21T08:44:09;42.63;39.21;50.74;;
66589;Laerm;53447;49.272;11.070;2023-11-21T08:46:34;41.55;35.82;54.90;;
66589;Laerm;53447;49.272;11.070;2023-11-21T08:49:01;39.92;36.20;49.64;;
66589;Laerm;53447;49.272;11.070;2023-11-21T08:51:27;50.66;36.38;69.35;;
66589;Laerm;53447;49.272;11.070;2023-11-21T08:53:52;52.21;38.20;70.37;;
66589;Laerm;53447;49.272;11.070;2023-11-21T08:56:18;42.19;37.17;48.48;;
66589;Laerm;53447;49.272;11.070;2023-11-21T08:58:44;41.62;38.42;46.98;;
66589;Laerm;53447;49.272;11.070;2023-11-21T09:01:10;43.36;38.42;64.41;;
66589;Laerm;53447;49.272;11.070;2023-11-21T09:03:36;51.43;38.53;72.13;;
66589;Laerm;53447;49.272;11.070;2023-11-21T09:06:02;42.46;37.02;61.26;;
66589;Laerm;53447;49.272;11.070;2023-11-21T09:08:28;41.85;37.96;50.97;;
66589;Laerm;53447;49.272;11.070;2023-11-21T09:10:54;47.35;40.11;63.14;;
66589;Laerm;53447;49.272;11.070;2023-11-21T09:13:19;45.96;39.88;63.19;;
66589;Laerm;53447;49.272;11.070;2023-11-21T09:15:44;51.35;38.53;69.50;;
66589;Laerm;53447;49.272;11.070;2023-11-21T09:18:13;42.23;38.20;55.60;;
66589;Laerm;53447;49.272;11.070;2023-11-21T09:20:38;42.48;39.12;58.29;;
66589;Laerm;53447;49.272;11.070;2023-11-21T09:23:03;52.93;39.21;70.23;;
66589;Laerm;53447;49.272;11.070;2023-11-21T09:25:28;45.93;39.03;60.30;;
66589;Laerm;53447;49.272;11.070;2023-11-21T09:27:54;52.65;38.08;70.66;;
66589;Laerm;53447;49.272;11.070;2023-11-21T09:30:19;41.24;37.45;51.13;;
66589;Laerm;53447;49.272;11.070;2023-11-21T09:32:44;41.45;38.28;53.69;;
66589;Laerm;53447;49.272;11.070;2023-11-21T09:35:10;41.27;38.20;45.86;;
66589;Laerm;53447;49.272;11.070;2023-11-21T09:37:36;40.98;36.02;52.10;;
66589;Laerm;53447;49.272;11.070;2023-11-21T09:40:03;39.11;34.44;43.08;;
66589;Laerm;53447;49.272;11.070;2023-11-21T09:42:30;39.64;34.16;53.32;;
66589;Laerm;53447;49.272;11.070;2023-11-21T09:45:10;42.00;35.82;52.57;;
66589;Laerm;53447;49.272;11.070;2023-11-21T09:47:38;41.10;34.44;52.40;;
66589;Laerm;53447;49.272;11.070;2023-11-21T09:50:04;41.20;34.16;51.35;;
66589;Laerm;53447;49.272;11.070;2023-11-21T09:52:29;40.06;33.86;50.38;;
66589;Laerm;53447;49.272;11.070;2023-11-21T09:54:57;41.61;34.95;65.23;;
66589;Laerm;53447;49.272;11.070;2023-11-21T09:57:23;43.69;34.70;57.57;;
66589;Laerm;53447;49.272;11.070;2023-11-21T09:59:52;39.82;34.70;53.28;;
66589;Laerm;53447;49.272;11.070;2023-11-21T10:02:24;39.66;34.70;49.58;;
66589;Laerm;53447;49.272;11.070;2023-11-21T10:04:51;40.44;34.95;58.92;;
66589;Laerm;53447;49.272;11.070;2023-11-21T10:07:17;40.57;34.44;43.86;;
66589;Laerm;53447;49.272;11.070;2023-11-21T10:09:42;40.86;32.81;47.46;;
66589;Laerm;53447;49.272;11.070;2023-11-21T10:12:08;40.33;36.02;44.25;;
66589;Laerm;53447;49.272;11.070;2023-11-21T10:14:35;39.99;35.41;44.78;;
66589;Laerm;53447;49.272;11.070;2023-11-21T10:17:02;41.33;35.41;49.32;;
66589;Laerm;53447;49.272;11.070;2023-11-21T10:19:27;50.71;38.42;70.18;;
66589;Laerm;53447;49.272;11.070;2023-11-21T10:21:53;42.63;38.20;49.47;;
66589;Laerm;53447;49.272;11.070;2023-11-21T10:24:19;40.30;35.19;51.89;;
66589;Laerm;53447;49.272;11.070;2023-11-21T10:26:44;40.90;36.38;43.95;;
66589;Laerm;53447;49.272;11.070;2023-11-21T10:29:13;40.36;35.82;44.68;;
66589;Laerm;53447;49.272;11.070;2023-11-21T10:31:41;57.01;34.95;73.21;;
66589;Laerm;53447;49.272;11.070;2023-11-21T10:36:38;43.00;37.96;56.12;;
66589;Laerm;53447;49.272;11.070;2023-11-21T10:39:03;42.31;36.02;57.26;;
66589;Laerm;53447;49.272;11.070;2023-11-21T10:41:28;40.33;35.19;50.40;;
66589;Laerm;53447;49.272;11.070;2023-11-21T10:43:53;39.27;33.86;50.63;;
66589;Laerm;53447;49.272;11.070;2023-11-21T10:46:20;44.33;38.83;54.88;;
66589;Laerm;53447;49.272;11.070;2023-11-21T10:48:46;40.90;35.82;51.66;;
66589;Laerm;53447;49.272;11.070;2023-11-21T10:51:16;40.94;35.62;54.77;;
66589;Laerm;53447;49.272;11.070;2023-11-21T10:53:44;38.87;34.44;46.49;;
66589;Laerm;53447;49.272;11.070;2023-11-21T10:56:10;43.08;34.44;55.91;;
66589;Laerm;53447;49.272;11.070;2023-11-21T10:58:42;43.10;36.38;55.48;;
66589;Laerm;53447;49.272;11.070;2023-11-21T11:01:07;49.79;36.38;67.91;;
66589;Laerm;53447;49.272;11.070;2023-11-21T11:03:33;53.95;37.45;73.43;;
66589;Laerm;53447;49.272;11.070;2023-11-21T11:06:01;44.72;40.25;62.23;;
66589;Laerm;53447;49.272;11.070;2023-11-21T11:08:27;46.59;37.71;64.44;;
66589;Laerm;53447;49.272;11.070;2023-11-21T11:10:52;39.91;35.48;51.38;;
66589;Laerm;53447;49.272;11.070;2023-11-21T11:13:18;41.68;35.41;61.11;;
66589;Laerm;53447;49.272;11.070;2023-11-21T11:15:44;52.80;38.63;71.94;;
66589;Laerm;53447;49.272;11.070;2023-11-21T11:18:12;41.79;36.87;51.72;;
66589;Laerm;53447;49.272;11.070;2023-11-21T11:20:38;44.64;37.96;55.41;;
66589;Laerm;53447;49.272;11.070;2023-11-21T11:23:28;50.41;36.71;67.93;;
66589;Laerm;53447;49.272;11.070;2023-11-21T11:36:34;49.49;36.55;65.94;;
66589;Laerm;53447;49.272;11.070;2023-11-21T11:39:01;45.65;36.37;59.81;;
66589;Laerm;53447;49.272;11.070;2023-11-21T11:41:30;45.62;36.20;60.34;;
66589;Laerm;53447;49.272;11.070;2023-11-21T11:43:58;53.42;34.44;71.27;;
66589;Laerm;53447;49.272;11.070;2023-11-21T11:46:41;42.80;35.19;57.60;;
66589;Laerm;53447;49.272;11.070;2023-11-21T11:49:07;52.28;34.44;70.62;;
66589;Laerm;53447;49.272;11.070;2023-11-21T11:51:33;50.72;38.63;75.81;;
66589;Laerm;53447;49.272;11.070;2023-11-21T11:54:00;51.51;35.62;68.05;;
66589;Laerm;53447;49.272;11.070;2023-11-21T11:56:30;42.85;35.06;57.10;;
66589;Laerm;53447;49.272;11.070;2023-11-21T11:58:59;40.12;33.19;55.09;;
66589;Laerm;53447;49.272;11.070;2023-11-21T12:01:27;43.33;36.38;64.14;;
66589;Laerm;53447;49.272;11.070;2023-11-21T12:06:39;49.36;35.41;66.60;;
66589;Laerm;53447;49.272;11.070;2023-11-21T12:09:06;51.36;34.95;70.55;;
66589;Laerm;53447;49.272;11.070;2023-11-21T12:11:31;41.05;35.48;44.27;;
66589;Laerm;53447;49.272;11.070;2023-11-21T12:13:57;42.69;35.27;61.81;;
66589;Laerm;53447;49.272;11.070;2023-11-21T12:16:24;54.86;36.38;74.68;;
66589;Laerm;53447;49.272;11.070;2023-11-21T12:18:52;50.92;38.31;69.45;;
66589;Laerm;53447;49.272;11.070;2023-11-21T12:21:18;42.03;38.53;55.05;;
66589;Laerm;53447;49.272;11.070;2023-11-21T12:23:44;41.94;39.39;50.39;;
66589;Laerm;53447;49.272;11.070;2023-11-21T12:26:10;41.74;38.73;44.70;;
66589;Laerm;53447;49.272;11.070;2023-11-21T12:28:36;41.43;38.93;49.46;;
66589;Laerm;53447;49.272;11.070;2023-11-21T12:31:01;42.56;38.31;53.82;;
66589;Laerm;53447;49.272;11.070;2023-11-21T12:33:26;43.71;39.12;56.30;;
66589;Laerm;53447;49.272;11.070;2023-11-21T12:35:54;42.99;39.21;55.89;;
66589;Laerm;53447;49.272;11.070;2023-11-21T12:38:19;44.75;38.53;56.61;;
66589;Laerm;53447;49.272;11.070;2023-11-21T12:40:44;41.46;37.45;52.03;;
66589;Laerm;53447;49.272;11.070;2023-11-21T12:43:10;43.12;39.12;55.07;;
66589;Laerm;53447;49.272;11.070;2023-11-21T12:45:35;54.88;38.20;75.72;;
66589;Laerm;53447;49.272;11.070;2023-11-21T12:48:03;44.07;38.63;60.97;;
66589;Laerm;53447;49.272;11.070;2023-11-21T12:50:33;44.08;37.31;72.37;;
66589;Laerm;53447;49.272;11.070;2023-11-21T12:53:05;43.89;38.20;54.35;;
66589;Laerm;53447;49.272;11.070;2023-11-21T12:55:33;53.31;37.71;67.88;;
66589;Laerm;53447;49.272;11.070;2023-11-21T12:58:02;49.34;37.31;67.60;;
66589;Laerm;53447;49.272;11.070;2023-11-21T13:00:37;53.82;37.31;70.02;;
66589;Laerm;53447;49.272;11.070;2023-11-21T13:03:04;42.27;37.58;49.28;;
66589;Laerm;53447;49.272;11.070;2023-11-21T13:05:30;41.72;37.17;53.52;;
66589;Laerm;53447;49.272;11.070;2023-11-21T13:07:56;48.51;37.58;66.29;;
66589;Laerm;53447;49.272;11.070;2023-11-21T13:10:25;54.54;39.72;74.28;;
66589;Laerm;53447;49.272;11.070;2023-11-21T13:12:55;43.89;37.71;63.61;;
66589;Laerm;53447;49.272;11.070;2023-11-21T13:15:23;41.86;38.08;54.88;;
66589;Laerm;53447;49.272;11.070;2023-11-21T13:17:49;41.25;37.71;49.21;;
66589;Laerm;53447;49.272;11.070;2023-11-21T13:20:16;40.99;37.31;43.70;;
66589;Laerm;53447;49.272;11.070;2023-11-21T13:22:45;53.15;39.64;72.62;;
66589;Laerm;53447;49.272;11.070;2023-11-21T13:25:10;41.81;39.21;57.29;;
66589;Laerm;53447;49.272;11.070;2023-11-21T13:27:35;43.48;40.39;52.27;;
66589;Laerm;53447;49.272;11.070;2023-11-21T13:30:02;41.68;37.58;50.57;;
66589;Laerm;53447;49.272;11.070;2023-11-21T13:32:28;40.83;36.38;45.00;;
66589;Laerm;53447;49.272;11.070;2023-11-21T13:34:54;41.12;37.58;48.87;;
66589;Laerm;53447;49.272;11.070;2023-11-21T13:37:20;40.51;37.02;46.50;;
66589;Laerm;53447;49.272;11.070;2023-11-21T13:39:45;42.54;38.42;46.41;;
66589;Laerm;53447;49.272;11.070;2023-11-21T13:42:14;48.86;37.71;69.66;;